Time;durP1;ratioP1;P1;durP2;ratioP2;P2;SDS_P1;SDS_P2;PMS_P1;PMS_P2;Temp;Humidity;BMP_temperature;BMP_pressure;BME280_temperature;BME280_humidity;BME280_pressure;Samples;Min_cycle;Max_cycle;Signal;HPM_P1;HPM_P2
2021/06/27 00:01:43;;;;;;;11.05;6.22;;;;;;;;;;5013312;28;20041;-68
2021/06/27 00:04:13;;;;;;;11.32;6.13;;;;;;;;;;5013544;28;20157;-68
2021/06/27 00:06:39;;;;;;;9.23;5.75;;;;;;;;;;5013261;28;20041;-67
2021/06/27 00:09:05;;;;;;;9.23;5.43;;;;;;;;;;5013231;28;20029;-67
2021/06/27 00:11:31;;;;;;;5.93;5.18;;;;;;;;;;5013193;28;20057;-65
2021/06/27 00:13:58;;;;;;;8.43;5.78;;;;;;;;;;5011710;28;20454;-68
2021/06/27 00:16:27;;;;;;;8.65;5.97;;;;;;;;;;5011848;28;20034;-69
2021/06/27 00:18:54;;;;;;;8.18;5.93;;;;;;;;;;5013227;28;20057;-68
2021/06/27 00:21:20;;;;;;;9.23;6.13;;;;;;;;;;5016296;28;20179;-69
2021/06/27 00:23:47;;;;;;;11.40;5.82;;;;;;;;;;5017311;28;20120;-68
2021/06/27 00:26:15;;;;;;;8.75;6.53;;;;;;;;;;5017079;28;20085;-68
2021/06/27 00:28:42;;;;;;;10.65;5.90;;;;;;;;;;5017110;28;20022;-71
2021/06/27 00:31:09;;;;;;;17.25;6.55;;;;;;;;;;5016989;28;20014;-68
2021/06/27 00:33:35;;;;;;;12.02;5.82;;;;;;;;;;5016896;28;20061;-68
2021/06/27 00:36:01;;;;;;;8.90;5.93;;;;;;;;;;5017149;28;20037;-68
2021/06/27 00:38:27;;;;;;;12.60;6.55;;;;;;;;;;5015602;28;20108;-67
2021/06/27 00:40:54;;;;;;;10.00;6.85;;;;;;;;;;5016858;28;20080;-68
2021/06/27 00:43:20;;;;;;;11.68;5.97;;;;;;;;;;5016768;28;20096;-68
2021/06/27 00:45:47;;;;;;;9.55;5.95;;;;;;;;;;5016724;28;20466;-69
2021/06/27 00:48:13;;;;;;;13.32;6.95;;;;;;;;;;5016712;28;20450;-68
2021/06/27 00:50:48;;;;;;;10.43;6.35;;;;;;;;;;5016627;28;20436;-69
2021/06/27 00:53:14;;;;;;;7.10;5.32;;;;;;;;;;5016555;28;20256;-69
2021/06/27 00:55:42;;;;;;;8.98;6.00;;;;;;;;;;5016518;28;20100;-65
2021/06/27 00:58:08;;;;;;;11.10;5.78;;;;;;;;;;5016507;28;20097;-66
2021/06/27 01:00:37;;;;;;;8.90;5.97;;;;;;;;;;5016435;28;20053;-67
2021/06/27 01:03:03;;;;;;;12.57;6.05;;;;;;;;;;5016406;28;20673;-67
2021/06/27 01:05:30;;;;;;;8.60;5.50;;;;;;;;;;5015019;28;20034;-66
2021/06/27 01:07:57;;;;;;;10.48;5.97;;;;;;;;;;5016357;28;20037;-67
2021/06/27 01:10:24;;;;;;;9.73;5.90;;;;;;;;;;5014960;28;20482;-64
2021/06/27 01:12:51;;;;;;;7.88;5.80;;;;;;;;;;5016131;28;20112;-66
2021/06/27 01:15:17;;;;;;;8.00;4.60;;;;;;;;;;5015890;28;20160;-66
2021/06/27 01:17:48;;;;;;;11.20;4.78;;;;;;;;;;5014790;28;20029;-67
2021/06/27 01:20:19;;;;;;;5.55;4.78;;;;;;;;;;5014860;28;20447;-69
2021/06/27 01:22:46;;;;;;;9.75;5.65;;;;;;;;;;5016052;28;20026;-67
2021/06/27 01:25:13;;;;;;;5.90;5.30;;;;;;;;;;5014356;28;20121;-67
2021/06/27 01:27:39;;;;;;;9.75;4.90;;;;;;;;;;5015930;28;20156;-70
2021/06/27 01:30:09;;;;;;;8.45;5.68;;;;;;;;;;5015907;28;20046;-68
2021/06/27 01:32:36;;;;;;;9.65;5.43;;;;;;;;;;5015444;28;20026;-67
2021/06/27 01:35:03;;;;;;;7.07;5.50;;;;;;;;;;5013904;28;20049;-66
2021/06/27 01:37:29;;;;;;;8.05;5.63;;;;;;;;;;5014136;28;20018;-67
2021/06/27 01:39:55;;;;;;;5.93;5.07;;;;;;;;;;5015703;28;20021;-66
2021/06/27 01:42:23;;;;;;;8.20;5.25;;;;;;;;;;5015628;28;20458;-67
2021/06/27 01:44:49;;;;;;;9.82;5.50;;;;;;;;;;5015584;28;20034;-66
2021/06/27 01:47:16;;;;;;;8.10;5.70;;;;;;;;;;5015299;28;20105;-68
2021/06/27 01:49:43;;;;;;;7.35;5.57;;;;;;;;;;5014320;28;20378;-67
2021/06/27 01:52:09;;;;;;;9.10;5.35;;;;;;;;;;5015373;28;20018;-66
2021/06/27 01:54:38;;;;;;;9.98;5.78;;;;;;;;;;5014096;28;20116;-67
2021/06/27 01:57:05;;;;;;;6.43;5.43;;;;;;;;;;5014103;28;20021;-69
2021/06/27 01:59:31;;;;;;;8.90;5.22;;;;;;;;;;5015424;28;20381;-67
2021/06/27 02:01:57;;;;;;;9.73;5.15;;;;;;;;;;5013968;28;20112;-66
2021/06/27 02:04:27;;;;;;;6.53;5.47;;;;;;;;;;5013924;28;20105;-68
2021/06/27 02:06:53;;;;;;;7.72;5.22;;;;;;;;;;5015210;28;20022;-67
2021/06/27 02:09:22;;;;;;;9.85;5.88;;;;;;;;;;5013874;28;20065;-66
2021/06/27 02:11:48;;;;;;;7.90;5.07;;;;;;;;;;5015011;28;20022;-67
2021/06/27 02:14:14;;;;;;;9.98;6.10;;;;;;;;;;5013723;28;20513;-67
2021/06/27 02:16:41;;;;;;;7.20;4.97;;;;;;;;;;5014988;28;20109;-68
2021/06/27 02:19:07;;;;;;;6.18;5.10;;;;;;;;;;5015021;28;20566;-68
2021/06/27 02:21:35;;;;;;;6.68;5.32;;;;;;;;;;5014878;28;20017;-68
2021/06/27 02:24:01;;;;;;;9.95;4.97;;;;;;;;;;5014875;28;20022;-69
2021/06/27 02:26:28;;;;;;;8.13;5.13;;;;;;;;;;5013581;28;20025;-68
2021/06/27 02:28:57;;;;;;;9.88;6.00;;;;;;;;;;5014858;28;20025;-69
2021/06/27 02:31:23;;;;;;;8.98;5.43;;;;;;;;;;5014790;28;20118;-69
2021/06/27 02:33:49;;;;;;;5.65;4.97;;;;;;;;;;5014330;28;20033;-69
2021/06/27 02:36:16;;;;;;;10.88;5.32;;;;;;;;;;5013417;28;20398;-69
2021/06/27 02:38:42;;;;;;;9.98;5.35;;;;;;;;;;5014676;28;20466;-67
2021/06/27 02:41:09;;;;;;;9.02;5.30;;;;;;;;;;5014292;28;20386;-68
2021/06/27 02:43:36;;;;;;;8.23;5.05;;;;;;;;;;5012592;28;20386;-71
2021/06/27 02:46:03;;;;;;;7.70;5.03;;;;;;;;;;5013174;28;20417;-69
2021/06/27 02:48:29;;;;;;;7.78;5.03;;;;;;;;;;5014700;28;20033;-67
2021/06/27 02:50:55;;;;;;;6.35;5.18;;;;;;;;;;5013095;28;20053;-68
2021/06/27 02:53:21;;;;;;;11.90;5.30;;;;;;;;;;5012960;28;20414;-67
2021/06/27 02:55:48;;;;;;;5.60;4.97;;;;;;;;;;5012974;28;20117;-68
2021/06/27 02:58:14;;;;;;;10.45;5.30;;;;;;;;;;5012933;28;20029;-67
2021/06/27 03:00:40;;;;;;;8.98;5.30;;;;;;;;;;5013003;28;20029;-69
2021/06/27 03:03:07;;;;;;;7.60;5.47;;;;;;;;;;5012909;28;20121;-66
2021/06/27 03:05:33;;;;;;;8.40;5.28;;;;;;;;;;5012780;28;20077;-66
2021/06/27 03:07:59;;;;;;;10.82;5.60;;;;;;;;;;5014111;28;20118;-68
2021/06/27 03:10:25;;;;;;;12.50;5.88;;;;;;;;;;5014093;28;20486;-68
2021/06/27 03:12:52;;;;;;;10.27;5.47;;;;;;;;;;5013755;28;20494;-66
2021/06/27 03:15:19;;;;;;;8.60;5.57;;;;;;;;;;5013944;28;20030;-67
2021/06/27 03:17:46;;;;;;;8.75;5.35;;;;;;;;;;5013914;28;20022;-65
2021/06/27 03:20:14;;;;;;;10.60;5.80;;;;;;;;;;5013928;28;20111;-67
2021/06/27 03:22:40;;;;;;;11.90;5.30;;;;;;;;;;5013895;28;20029;-68
2021/06/27 03:25:08;;;;;;;11.25;4.90;;;;;;;;;;5012468;28;20033;-67
2021/06/27 03:27:34;;;;;;;7.43;4.72;;;;;;;;;;5012429;28;20109;-69
2021/06/27 03:30:00;;;;;;;8.23;5.30;;;;;;;;;;5014068;28;20022;-67
2021/06/27 03:32:26;;;;;;;11.52;5.57;;;;;;;;;;5013354;28;20120;-69
2021/06/27 03:34:52;;;;;;;10.93;4.95;;;;;;;;;;5011934;28;20513;-67
2021/06/27 03:37:19;;;;;;;10.43;4.90;;;;;;;;;;5013897;28;20108;-68
2021/06/27 03:39:45;;;;;;;9.32;5.32;;;;;;;;;;5013633;28;20060;-69
2021/06/27 03:42:11;;;;;;;9.90;4.55;;;;;;;;;;5013629;28;20026;-68
2021/06/27 03:44:38;;;;;;;12.45;5.43;;;;;;;;;;5013511;28;20100;-68
2021/06/27 03:47:04;;;;;;;9.68;5.18;;;;;;;;;;5013488;28;20029;-68
2021/06/27 03:49:30;;;;;;;8.55;5.40;;;;;;;;;;5013505;28;20489;-69
2021/06/27 03:51:57;;;;;;;5.72;4.97;;;;;;;;;;5013611;28;20030;-69
2021/06/27 03:54:23;;;;;;;7.30;5.03;;;;;;;;;;5013057;28;20093;-67
2021/06/27 03:56:49;;;;;;;8.02;4.70;;;;;;;;;;5013342;28;20025;-66
2021/06/27 03:59:15;;;;;;;6.25;5.35;;;;;;;;;;5013394;28;20128;-66
2021/06/27 04:01:41;;;;;;;6.78;5.43;;;;;;;;;;5013329;28;20467;-67
2021/06/27 04:04:08;;;;;;;6.30;4.90;;;;;;;;;;5013306;28;20068;-66
2021/06/27 04:06:34;;;;;;;7.53;5.30;;;;;;;;;;5011968;28;20161;-67
2021/06/27 04:09:00;;;;;;;8.85;5.85;;;;;;;;;;5013572;28;20486;-67
2021/06/27 04:11:26;;;;;;;7.63;4.82;;;;;;;;;;5013234;28;20497;-66
2021/06/27 04:13:52;;;;;;;10.80;5.22;;;;;;;;;;5013153;28;20069;-67
2021/06/27 04:16:19;;;;;;;15.13;5.78;;;;;;;;;;5013179;28;20026;-67
2021/06/27 04:18:45;;;;;;;7.82;5.13;;;;;;;;;;5013159;28;20018;-67
2021/06/27 04:21:11;;;;;;;7.22;4.95;;;;;;;;;;5013196;28;20101;-67
2021/06/27 04:23:39;;;;;;;9.18;5.05;;;;;;;;;;5013098;28;20030;-67
2021/06/27 04:26:05;;;;;;;10.88;5.00;;;;;;;;;;5012011;28;20508;-68
2021/06/27 04:28:31;;;;;;;5.05;4.50;;;;;;;;;;5013077;28;20061;-68
2021/06/27 04:31:00;;;;;;;5.85;5.05;;;;;;;;;;5011707;28;20116;-68
2021/06/27 04:33:27;;;;;;;9.40;5.55;;;;;;;;;;5013010;28;20034;-67
2021/06/27 04:35:53;;;;;;;8.18;5.00;;;;;;;;;;5013075;28;20050;-68
2021/06/27 04:38:20;;;;;;;5.40;4.65;;;;;;;;;;5012990;28;20102;-69
2021/06/27 04:40:47;;;;;;;5.82;5.18;;;;;;;;;;5012654;28;20382;-67
2021/06/27 04:43:13;;;;;;;7.38;5.18;;;;;;;;;;5013013;28;20029;-68
2021/06/27 04:45:40;;;;;;;9.45;4.68;;;;;;;;;;5011810;28;20061;-68
2021/06/27 04:48:07;;;;;;;6.05;4.75;;;;;;;;;;5012903;28;20026;-69
2021/06/27 04:50:34;;;;;;;9.68;4.80;;;;;;;;;;5012938;28;20026;-68
2021/06/27 04:53:01;;;;;;;7.32;4.65;;;;;;;;;;5013102;28;20076;-68
2021/06/27 04:55:27;;;;;;;10.60;4.65;;;;;;;;;;5013897;28;20026;-66
2021/06/27 04:57:54;;;;;;;5.95;4.45;;;;;;;;;;5014622;28;20026;-67
2021/06/27 05:00:20;;;;;;;7.97;4.53;;;;;;;;;;5015512;28;20106;-68
2021/06/27 05:02:46;;;;;;;10.40;4.72;;;;;;;;;;5013422;28;20356;-66
2021/06/27 05:05:13;;;;;;;4.68;4.10;;;;;;;;;;5013801;28;20113;-69
2021/06/27 05:07:39;;;;;;;8.07;5.18;;;;;;;;;;5017205;28;20026;-67
2021/06/27 05:10:06;;;;;;;8.93;5.00;;;;;;;;;;5015038;28;20370;-67
2021/06/27 05:12:33;;;;;;;9.40;4.40;;;;;;;;;;5016105;28;20467;-67
2021/06/27 05:14:59;;;;;;;9.88;4.47;;;;;;;;;;5016195;28;20121;-68
2021/06/27 05:17:26;;;;;;;7.70;4.50;;;;;;;;;;5016121;28;20069;-67
2021/06/27 05:19:52;;;;;;;11.77;4.60;;;;;;;;;;5016172;28;20053;-66
2021/06/27 05:22:18;;;;;;;5.95;3.92;;;;;;;;;;5016083;28;20415;-66
2021/06/27 05:24:44;;;;;;;8.85;4.20;;;;;;;;;;5016023;28;20034;-65
2021/06/27 05:27:15;;;;;;;6.25;4.75;;;;;;;;;;5014662;28;20030;-67
2021/06/27 05:29:42;;;;;;;4.35;3.90;;;;;;;;;;5014618;28;20072;-67
2021/06/27 05:32:08;;;;;;;7.55;3.97;;;;;;;;;;5014436;28;20033;-66
2021/06/27 05:34:34;;;;;;;8.13;4.45;;;;;;;;;;5015487;28;20053;-65
2021/06/27 05:37:02;;;;;;;6.72;3.70;;;;;;;;;;5015827;28;20033;-67
2021/06/27 05:39:28;;;;;;;8.23;4.80;;;;;;;;;;5016415;28;20024;-67
2021/06/27 05:41:55;;;;;;;5.45;4.50;;;;;;;;;;5016816;28;20097;-66
2021/06/27 05:44:21;;;;;;;10.85;4.57;;;;;;;;;;5017515;28;20033;-67
2021/06/27 05:46:47;;;;;;;6.28;4.05;;;;;;;;;;5016959;28;20365;-64
2021/06/27 05:49:14;;;;;;;7.15;4.07;;;;;;;;;;5016328;28;20025;-66
2021/06/27 05:51:43;;;;;;;8.55;4.45;;;;;;;;;;5014601;28;20471;-65
2021/06/27 05:54:09;;;;;;;5.30;3.92;;;;;;;;;;5015733;28;20038;-66
2021/06/27 05:56:36;;;;;;;8.82;4.20;;;;;;;;;;5013983;28;20374;-65
2021/06/27 05:59:08;;;;;;;5.63;4.00;;;;;;;;;;5015319;28;20500;-65
2021/06/27 06:01:37;;;;;;;5.65;3.65;;;;;;;;;;5013043;28;20033;-66
2021/06/27 06:04:03;;;;;;;14.38;4.75;;;;;;;;;;5015515;28;20037;-67
2021/06/27 06:06:30;;;;;;;5.75;4.43;;;;;;;;;;5015180;28;20069;-63
2021/06/27 06:08:56;;;;;;;48.90;5.57;;;;;;;;;;5015123;28;20061;-64
2021/06/27 06:11:25;;;;;;;11.38;3.67;;;;;;;;;;5015184;28;20478;-65
2021/06/27 06:13:51;;;;;;;5.32;4.55;;;;;;;;;;5014995;28;20109;-64
2021/06/27 06:16:18;;;;;;;5.43;3.40;;;;;;;;;;5013701;28;20029;-66
2021/06/27 06:18:45;;;;;;;8.32;4.20;;;;;;;;;;5012633;28;20029;-64
2021/06/27 06:21:15;;;;;;;9.45;4.85;;;;;;;;;;5013680;28;20090;-66
2021/06/27 06:23:41;;;;;;;5.63;4.35;;;;;;;;;;5014862;28;20054;-65
2021/06/27 06:26:07;;;;;;;4.78;3.55;;;;;;;;;;5014840;28;20022;-65
2021/06/27 06:28:34;;;;;;;4.82;3.92;;;;;;;;;;5014759;28;20022;-66
2021/06/27 06:31:00;;;;;;;16.42;4.25;;;;;;;;;;5014768;28;20493;-65
2021/06/27 06:33:27;;;;;;;5.10;4.13;;;;;;;;;;5014588;28;20478;-64
2021/06/27 06:35:53;;;;;;;5.68;3.72;;;;;;;;;;5014731;28;20068;-64
2021/06/27 06:38:19;;;;;;;4.60;3.90;;;;;;;;;;5013241;28;20474;-65
2021/06/27 06:40:46;;;;;;;6.97;4.15;;;;;;;;;;5014503;28;20032;-65
2021/06/27 06:43:12;;;;;;;7.82;3.85;;;;;;;;;;5014189;28;20057;-67
2021/06/27 06:45:39;;;;;;;7.38;4.13;;;;;;;;;;5013233;28;20026;-64
2021/06/27 06:48:05;;;;;;;5.18;3.83;;;;;;;;;;5014409;28;20037;-66
2021/06/27 06:50:31;;;;;;;6.13;3.88;;;;;;;;;;5014431;28;20109;-68
2021/06/27 06:52:58;;;;;;;4.28;3.75;;;;;;;;;;5014237;28;20486;-64
2021/06/27 06:55:26;;;;;;;5.78;3.80;;;;;;;;;;5014233;28;20037;-69
2021/06/27 06:57:53;;;;;;;4.88;3.63;;;;;;;;;;5014098;28;20475;-68
2021/06/27 07:00:19;;;;;;;4.97;3.60;;;;;;;;;;5014202;28;20126;-68
2021/06/27 07:02:45;;;;;;;5.85;3.28;;;;;;;;;;5014170;28;20026;-67
2021/06/27 07:05:12;;;;;;;3.78;3.10;;;;;;;;;;5014064;28;20475;-65
2021/06/27 07:07:40;;;;;;;8.82;3.17;;;;;;;;;;5011176;28;20104;-67
2021/06/27 07:10:07;;;;;;;4.93;3.60;;;;;;;;;;5012068;28;20018;-67
2021/06/27 07:12:34;;;;;;;5.10;3.30;;;;;;;;;;5013674;28;20030;-67
2021/06/27 07:15:00;;;;;;;6.75;3.50;;;;;;;;;;5014005;28;20069;-65
2021/06/27 07:17:27;;;;;;;4.15;3.40;;;;;;;;;;5014170;28;20496;-68
2021/06/27 07:19:54;;;;;;;3.53;2.78;;;;;;;;;;5013888;28;20037;-65
2021/06/27 07:22:20;;;;;;;4.40;2.88;;;;;;;;;;5013903;28;20076;-66
2021/06/27 07:24:46;;;;;;;4.82;2.70;;;;;;;;;;5012589;28;20375;-66
2021/06/27 07:27:12;;;;;;;5.32;3.83;;;;;;;;;;5013825;28;20367;-67
2021/06/27 07:29:38;;;;;;;3.50;3.05;;;;;;;;;;5012222;28;20108;-69
2021/06/27 07:32:06;;;;;;;5.13;2.78;;;;;;;;;;5013705;28;20030;-68
2021/06/27 07:37:39;;;;;;;5.53;2.80;;;;;;;;;;5013939;28;20041;-66
2021/06/27 07:40:05;;;;;;;4.03;3.13;;;;;;;;;;5013387;28;20112;-67
2021/06/27 07:42:32;;;;;;;6.32;2.72;;;;;;;;;;5013577;28;20053;-67
2021/06/27 07:44:58;;;;;;;6.55;3.30;;;;;;;;;;5012461;28;20378;-68
2021/06/27 07:47:24;;;;;;;2.80;2.60;;;;;;;;;;5013386;28;20160;-67
2021/06/27 07:49:51;;;;;;;5.18;3.33;;;;;;;;;;5013311;28;20518;-68
2021/06/27 07:52:17;;;;;;;3.00;2.80;;;;;;;;;;5012054;28;20493;-68
2021/06/27 07:54:43;;;;;;;2.90;2.60;;;;;;;;;;5013652;28;20036;-68
2021/06/27 07:57:09;;;;;;;3.25;2.78;;;;;;;;;;5013415;28;20101;-68
2021/06/27 07:59:35;;;;;;;4.18;2.97;;;;;;;;;;5013366;28;20030;-69
2021/06/27 08:02:02;;;;;;;4.63;2.90;;;;;;;;;;5013350;28;20026;-67
2021/06/27 08:04:28;;;;;;;5.50;3.03;;;;;;;;;;5011966;28;20022;-68
2021/06/27 08:06:54;;;;;;;4.55;2.85;;;;;;;;;;5012011;28;20104;-69
2021/06/27 08:09:20;;;;;;;5.15;2.78;;;;;;;;;;5013167;28;20418;-68
2021/06/27 08:11:47;;;;;;;3.70;2.50;;;;;;;;;;5013222;28;20366;-69
2021/06/27 08:14:13;;;;;;;3.40;2.70;;;;;;;;;;5013177;28;20117;-69
2021/06/27 08:16:39;;;;;;;2.03;1.92;;;;;;;;;;5013175;28;20056;-67
2021/06/27 08:19:06;;;;;;;4.07;2.58;;;;;;;;;;5012842;28;20370;-65
2021/06/27 08:21:33;;;;;;;2.35;2.13;;;;;;;;;;5011864;28;20033;-64
2021/06/27 08:23:59;;;;;;;2.78;2.05;;;;;;;;;;5011728;28;20026;-66
2021/06/27 08:26:25;;;;;;;3.67;2.13;;;;;;;;;;5013405;28;20382;-65
2021/06/27 08:28:52;;;;;;;4.55;2.45;;;;;;;;;;5011854;28;20108;-68
2021/06/27 08:31:20;;;;;;;4.25;2.78;;;;;;;;;;5012835;28;20066;-67
2021/06/27 08:33:46;;;;;;;2.03;1.92;;;;;;;;;;5011369;28;20041;-63
2021/06/27 08:36:12;;;;;;;3.03;2.22;;;;;;;;;;5012988;28;20022;-66
2021/06/27 08:38:39;;;;;;;2.42;2.22;;;;;;;;;;5012691;28;20093;-67
2021/06/27 08:41:05;;;;;;;2.80;2.17;;;;;;;;;;5012326;28;20487;-67
2021/06/27 08:43:33;;;;;;;2.60;1.95;;;;;;;;;;5016818;28;20102;-64
2021/06/27 08:46:04;;;;;;;3.60;1.80;;;;;;;;;;5015356;28;20493;-63
2021/06/27 08:48:31;;;;;;;2.58;1.67;;;;;;;;;;5032740;28;20033;-68
2021/06/27 08:50:58;;;;;;;2.97;2.42;;;;;;;;;;5016483;28;20148;-66
2021/06/27 08:53:24;;;;;;;1.95;1.83;;;;;;;;;;5016578;28;20026;-63
2021/06/27 08:56:04;;;;;;;3.70;1.63;;;;;;;;;;5016511;28;20081;-65
2021/06/27 08:58:32;;;;;;;6.32;1.70;;;;;;;;;;5015282;28;20136;-67
2021/06/27 09:00:58;;;;;;;2.20;1.90;;;;;;;;;;5016389;28;20032;-66
2021/06/27 09:03:25;;;;;;;2.03;1.90;;;;;;;;;;5016373;28;20025;-66
2021/06/27 09:05:51;;;;;;;2.92;1.75;;;;;;;;;;5016580;28;20172;-66
2021/06/27 09:08:18;;;;;;;2.35;1.73;;;;;;;;;;5014899;28;20080;-63
2021/06/27 09:10:44;;;;;;;3.90;1.60;;;;;;;;;;5015994;28;20037;-67
2021/06/27 09:13:11;;;;;;;1.58;1.48;;;;;;;;;;5016015;28;20077;-65
2021/06/27 09:15:45;;;;;;;20.77;6.85;;;;;;;;;;5021131;28;20014;-64
2021/06/27 09:18:22;;;;;;;28.42;9.70;;;;;;;;;;5021476;28;20021;-64
2021/06/27 09:20:50;;;;;;;4.65;2.47;;;;;;;;;;5023916;28;20018;-65
2021/06/27 09:23:17;;;;;;;13.07;3.95;;;;;;;;;;5024443;28;20578;-65
2021/06/27 09:25:44;;;;;;;7.00;2.83;;;;;;;;;;5024780;28;20025;-64
2021/06/27 09:28:18;;;;;;;3.08;1.75;;;;;;;;;;5023511;28;20025;-64
2021/06/27 09:30:46;;;;;;;7.60;3.70;;;;;;;;;;5022985;28;20072;-63
2021/06/27 09:33:16;;;;;;;4.97;2.00;;;;;;;;;;5025566;28;20083;-64
2021/06/27 09:35:43;;;;;;;3.70;1.50;;;;;;;;;;5025850;28;20056;-63
2021/06/27 09:38:27;;;;;;;2.55;1.77;;;;;;;;;;5035551;28;20029;-66
2021/06/27 09:41:02;;;;;;;2.55;1.70;;;;;;;;;;5035456;28;20036;-64
2021/06/27 09:43:30;;;;;;;2.42;1.70;;;;;;;;;;5035488;28;20037;-65
2021/06/27 09:46:01;;;;;;;3.10;1.65;;;;;;;;;;5034018;28;20025;-63
2021/06/27 09:48:28;;;;;;;1.48;1.40;;;;;;;;;;5035185;28;20022;-63
2021/06/27 09:50:58;;;;;;;1.80;1.70;;;;;;;;;;5035131;28;20025;-63
2021/06/27 09:53:35;;;;;;;2.78;1.98;;;;;;;;;;5031975;28;20148;-63
2021/06/27 09:56:02;;;;;;;2.60;2.00;;;;;;;;;;5033600;28;20021;-65
2021/06/27 09:58:29;;;;;;;2.90;1.70;;;;;;;;;;5035168;28;20100;-63
2021/06/27 10:00:57;;;;;;;2.45;1.55;;;;;;;;;;5035061;28;20060;-63
2021/06/27 10:03:24;;;;;;;1.45;1.35;;;;;;;;;;5033478;28;20162;-61
2021/06/27 10:05:50;;;;;;;3.30;1.52;;;;;;;;;;5034977;28;20075;-65
2021/06/27 10:08:29;;;;;;;7.78;1.67;;;;;;;;;;5035026;28;20500;-66
2021/06/27 10:11:18;;;;;;;2.60;1.38;;;;;;;;;;5034853;28;20095;-67
2021/06/27 10:13:46;;;;;;;1.58;1.45;;;;;;;;;;5034859;28;20025;-66
2021/06/27 10:16:33;;;;;;;2.92;1.40;;;;;;;;;;5034944;28;20366;-65
2021/06/27 10:19:00;;;;;;;1.27;1.17;;;;;;;;;;5034908;28;20374;-65
2021/06/27 10:21:27;;;;;;;1.55;1.30;;;;;;;;;;5034842;28;20100;-65
2021/06/27 10:23:54;;;;;;;1.20;1.20;;;;;;;;;;5034694;28;20029;-67
2021/06/27 10:26:21;;;;;;;5.35;1.45;;;;;;;;;;5034718;28;20029;-64
2021/06/27 10:28:48;;;;;;;1.27;1.27;;;;;;;;;;5034530;28;20112;-69
2021/06/27 10:31:14;;;;;;;2.60;1.33;;;;;;;;;;5034503;28;20025;-68
2021/06/27 10:33:41;;;;;;;1.70;1.38;;;;;;;;;;5024954;28;20066;-65
2021/06/27 10:36:09;;;;;;;1.80;1.40;;;;;;;;;;5014509;28;20109;-67
2021/06/27 10:38:36;;;;;;;2.05;1.70;;;;;;;;;;5013318;28;20162;-66
2021/06/27 10:41:03;;;;;;;11.95;2.45;;;;;;;;;;5013144;28;20111;-66
2021/06/27 10:43:47;;;;;;;1.70;1.60;;;;;;;;;;5014428;28;20076;-64
2021/06/27 10:46:15;;;;;;;4.95;1.70;;;;;;;;;;5012668;28;20030;-65
2021/06/27 10:48:42;;;;;;;1.52;1.35;;;;;;;;;;5013687;28;20026;-65
2021/06/27 10:51:13;;;;;;;2.63;1.20;;;;;;;;;;5014056;28;20026;-64
2021/06/27 10:53:58;;;;;;;4.93;1.08;;;;;;;;;;5021317;28;20029;-66
2021/06/27 10:56:51;;;;;;;2.78;1.45;;;;;;;;;;5033839;28;20082;-66
2021/06/27 10:59:35;;;;;;;49.42;4.05;;;;;;;;;;5033875;28;20105;-68
2021/06/27 11:02:21;;;;;;;1.30;1.15;;;;;;;;;;5033952;28;20025;-65
2021/06/27 11:04:51;;;;;;;2.20;1.23;;;;;;;;;;5033302;28;20018;-68
2021/06/27 11:07:46;;;;;;;1.30;1.30;;;;;;;;;;5032510;28;20492;-69
2021/06/27 11:10:19;;;;;;;7.05;1.27;;;;;;;;;;4937035;29;20046;-67
2021/06/27 11:13:05;;;;;;;4.88;1.30;;;;;;;;;;4937115;29;20138;-68
2021/06/27 11:15:36;;;;;;;2.67;1.60;;;;;;;;;;4953254;29;20161;-65
2021/06/27 11:18:04;;;;;;;1.35;1.30;;;;;;;;;;4953240;29;20062;-68
2021/06/27 11:20:32;;;;;;;1.48;1.38;;;;;;;;;;4937013;29;20031;-68
2021/06/27 11:22:59;;;;;;;1.52;1.38;;;;;;;;;;4953327;29;20575;-68
2021/06/27 11:25:38;;;;;;;7.25;1.65;;;;;;;;;;4951419;29;20442;-67
2021/06/27 11:28:24;;;;;;;2.50;1.20;;;;;;;;;;4952909;29;20035;-69
2021/06/27 11:30:52;;;;;;;11.73;1.73;;;;;;;;;;4946722;29;20035;-70
2021/06/27 11:33:20;;;;;;;1.25;1.25;;;;;;;;;;4952742;29;20415;-68
2021/06/27 11:35:50;;;;;;;1.73;1.58;;;;;;;;;;4952725;29;20066;-68
2021/06/27 11:38:34;;;;;;;1.10;1.10;;;;;;;;;;4936853;29;20034;-71
2021/06/27 11:41:02;;;;;;;1.02;1.00;;;;;;;;;;4952515;29;20094;-68
2021/06/27 11:43:47;;;;;;;1.45;1.02;;;;;;;;;;4952905;29;20035;-69
2021/06/27 11:46:29;;;;;;;6.22;1.17;;;;;;;;;;4966771;28;20148;-69
2021/06/27 11:48:55;;;;;;;3.53;1.20;;;;;;;;;;5032275;28;20029;-69
2021/06/27 11:51:33;;;;;;;3.05;1.17;;;;;;;;;;5031815;28;20022;-68
2021/06/27 11:53:59;;;;;;;0.90;0.90;;;;;;;;;;5033003;28;20041;-70
2021/06/27 11:56:25;;;;;;;1.73;1.40;;;;;;;;;;5031824;28;20128;-69
2021/06/27 11:59:11;;;;;;;1.33;1.08;;;;;;;;;;5032617;28;20088;-68
2021/06/27 12:01:37;;;;;;;2.70;1.13;;;;;;;;;;5033045;28;20056;-66
2021/06/27 12:04:03;;;;;;;2.08;1.75;;;;;;;;;;5033068;28;20062;-67
2021/06/27 12:06:36;;;;;;;2.25;1.20;;;;;;;;;;5033049;28;20109;-67
2021/06/27 12:09:03;;;;;;;1.27;1.10;;;;;;;;;;5032986;28;20052;-68
2021/06/27 12:11:29;;;;;;;1.10;1.10;;;;;;;;;;5032966;28;20080;-69
2021/06/27 12:13:56;;;;;;;1.23;1.10;;;;;;;;;;5032957;28;20076;-66
2021/06/27 12:16:30;;;;;;;1.85;1.30;;;;;;;;;;5032969;28;20405;-67
2021/06/27 12:18:59;;;;;;;1.27;1.17;;;;;;;;;;5037156;28;20025;-66
2021/06/27 12:21:27;;;;;;;1.40;1.30;;;;;;;;;;5036921;28;20028;-66
2021/06/27 12:23:57;;;;;;;1.52;1.42;;;;;;;;;;5037292;28;20033;-66
2021/06/27 12:26:24;;;;;;;1.27;1.27;;;;;;;;;;5037248;28;20028;-65
2021/06/27 12:28:51;;;;;;;2.55;1.00;;;;;;;;;;5035500;28;20643;-64
2021/06/27 12:31:24;;;;;;;0.90;0.90;;;;;;;;;;5036480;28;20034;-70
2021/06/27 12:33:54;;;;;;;0.95;0.85;;;;;;;;;;5034430;28;20072;-67
2021/06/27 12:36:26;;;;;;;0.82;0.82;;;;;;;;;;5036610;28;20018;-66
2021/06/27 12:38:55;;;;;;;3.03;1.00;;;44.30;40.30;;;;;;5036646;28;20025;-66
2021/06/27 12:41:23;;;;;;;1.50;1.40;;;43.60;41.50;;;;;;5035979;28;20052;-66
2021/06/27 12:43:57;;;;;;;3.33;0.75;;;;;;;;;;5035252;28;20061;-68
2021/06/27 12:46:28;;;;;;;1.85;1.10;;;;;;;;;;5034333;28;20026;-66
2021/06/27 12:49:00;;;;;;;6.80;1.10;;;41.50;41.80;;;;;;5035618;28;20056;-67
2021/06/27 12:51:35;;;;;;;3.20;0.90;;;41.80;41.70;;;;;;5035270;28;20529;-65
2021/06/27 12:54:03;;;;;;;0.82;0.82;;;;;;;;;;5035164;28;20036;-66
2021/06/27 12:56:49;;;;;;;0.70;0.70;;;43.10;63.50;;;;;;5036319;28;20025;-65
2021/06/27 12:59:17;;;;;;;9.98;1.52;;;43.10;39.20;;;;;;5036252;28;20029;-65
2021/06/27 13:01:57;;;;;;;21.38;1.90;;;43.60;39.70;;;;;;5036235;28;20029;-65
2021/06/27 13:04:46;;;;;;;3.77;1.00;;;43.50;39.40;;;;;;5034964;28;20040;-67
2021/06/27 13:07:14;;;;;;;8.30;1.58;;;43.50;39.10;;;;;;4987216;28;20061;-64
2021/06/27 13:10:19;;;;;;;2.38;1.10;;;43.50;38.60;;;;;;5036086;28;20022;-64
2021/06/27 13:13:01;;;;;;;1.45;1.08;;;43.80;39.60;;;;;;5035273;28;20107;-65
2021/06/27 13:15:33;;;;;;;1.08;1.02;;;44.70;38.20;;;;;;5036040;28;20026;-63
2021/06/27 13:18:06;;;;;;;0.85;0.85;;;44.50;38.00;;;;;;5036041;28;20033;-65
2021/06/27 13:20:35;;;;;;;1.10;1.00;;;45.20;39.10;;;;;;5034531;28;20120;-64
2021/06/27 13:23:05;;;;;;;1.52;0.80;;;44.30;36.60;;;;;;5034553;28;20124;-65
2021/06/27 13:25:31;;;;;;;;;;;;;;;;;;5034707;28;20134;-63
2021/06/27 13:27:58;;;;;;;0.90;0.90;;;41.10;40.10;;;;;;5033937;28;20003;-64
2021/06/27 13:30:24;;;;;;;2.83;1.08;;;;;;;;;;5034138;28;20040;-64
2021/06/27 13:33:07;;;;;;;3.95;1.00;;;44.10;42.50;;;;;;5035620;28;20025;-64
2021/06/27 13:35:42;;;;;;;2.00;0.90;;;44.70;37.90;;;;;;5035199;28;20053;-64
2021/06/27 13:38:13;;;;;;;0.93;0.88;;;46.50;75.50;;;;;;5035596;28;20021;-62
2021/06/27 13:40:40;;;;;;;0.77;0.77;;;;;;;;;;5035585;28;20033;-64
2021/06/27 13:43:06;;;;;;;0.70;0.70;;;;;;;;;;5035556;28;20029;-65
2021/06/27 13:45:33;;;;;;;0.90;0.90;;;46.60;59.70;;;;;;5035523;28;20474;-64
2021/06/27 13:47:59;;;;;;;0.80;0.80;;;46.80;36.00;;;;;;5035390;28;20038;-66
2021/06/27 13:50:27;;;;;;;0.90;0.90;;;46.20;35.90;;;;;;5035349;28;20056;-66
2021/06/27 13:52:54;;;;;;;1.35;1.10;;;46.30;36.60;;;;;;5035265;28;20069;-67
2021/06/27 13:55:22;;;;;;;1.88;0.73;;;45.30;35.90;;;;;;5035257;28;20079;-66
2021/06/27 13:57:49;;;;;;;0.95;0.95;;;44.60;35.80;;;;;;5035266;28;20033;-65
2021/06/27 14:00:15;;;;;;;0.88;0.88;;;;;;;;;;5035185;28;20075;-63
2021/06/27 14:02:42;;;;;;;1.95;0.85;;;;;;;;;;5035144;28;20029;-62
2021/06/27 14:05:10;;;;;;;0.82;0.82;;;46.70;35.20;;;;;;5035137;28;20067;-63
2021/06/27 14:07:36;;;;;;;0.80;0.80;;;47.50;34.50;;;;;;5035037;28;20040;-65
2021/06/27 14:10:04;;;;;;;0.82;0.82;;;47.50;35.20;;;;;;5033721;28;20026;-66
2021/06/27 14:12:30;;;;;;;1.00;0.65;;;47.70;35.70;;;;;;5034778;28;20029;-64
2021/06/27 14:14:58;;;;;;;5.57;1.08;;;48.10;34.90;;;;;;5033698;28;20163;-65
2021/06/27 14:17:24;;;;;;;2.22;0.70;;;48.10;34.90;;;;;;5034873;28;20026;-63
2021/06/27 14:19:50;;;;;;;1.05;0.80;;;48.00;33.90;;;;;;5034888;28;20386;-65
2021/06/27 14:22:16;;;;;;;1.65;0.75;;;47.90;34.20;;;;;;5034442;28;20025;-65
2021/06/27 14:24:42;;;;;;;1.75;0.80;;;47.60;33.70;;;;;;5034778;28;20033;-64
2021/06/27 14:27:10;;;;;;;0.95;0.95;;;47.60;34.60;;;;;;5034753;28;20029;-65
2021/06/27 14:29:36;;;;;;;0.90;0.90;;;48.60;35.70;;;;;;5034624;28;20030;-65
2021/06/27 14:32:06;;;;;;;1.15;1.05;;;49.50;35.20;;;;;;5034655;28;20052;-63
2021/06/27 14:34:32;;;;;;;3.50;1.27;;;50.10;35.00;;;;;;5034212;28;20107;-65
2021/06/27 14:36:58;;;;;;;1.88;1.10;;;50.40;33.80;;;;;;5034460;28;20064;-64